Time;durP1;ratioP1;P1;durP2;ratioP2;P2;SDS_P1;SDS_P2;PMS_P1;PMS_P2;Temp;Humidity;BMP_temperature;BMP_pressure;BME280_temperature;BME280_humidity;BME280_pressure;Samples;Min_cycle;Max_cycle;Signal;HPM_P1;HPM_P2
2022/07/01 00:00:48;;;;;;;4.18;1.50;;;;;;;;;;4944661;28;20046;-63
2022/07/01 00:03:34;;;;;;;2.58;1.55;;;;;;;;;;4950844;28;20111;-64
2022/07/01 00:06:20;;;;;;;2.40;1.50;;;;;;;;;;4943145;28;20082;-71
2022/07/01 00:09:06;;;;;;;3.00;1.20;;;;;;;;;;4951465;28;20023;-71
2022/07/01 00:11:52;;;;;;;4.50;1.42;;;;;;;;;;4952341;28;20043;-63
2022/07/01 00:14:37;;;;;;;7.05;1.85;;;;;;;;;;4949820;28;20035;-63
2022/07/01 00:17:23;;;;;;;3.88;1.08;;;;;;;;;;4975346;28;20029;-61
2022/07/01 00:20:09;;;;;;;2.38;1.02;;;;;;;;;;4952955;28;20037;-64
2022/07/01 00:22:54;;;;;;;2.03;1.00;;;;;;;;;;4948965;28;20367;-62
2022/07/01 00:25:40;;;;;;;1.98;1.13;;;;;;;;;;4974973;28;20031;-64
2022/07/01 00:28:25;;;;;;;2.05;1.05;;;;;;;;;;4951048;28;20034;-62
2022/07/01 00:31:11;;;;;;;1.23;1.13;;;;;;;;;;4947120;28;20031;-61
2022/07/01 00:33:57;;;;;;;1.48;1.10;;;;;;;;;;4971208;28;20017;-59
2022/07/01 00:36:42;;;;;;;3.97;1.10;;;;;;;;;;4958505;28;20460;-60
2022/07/01 00:39:31;;;;;;;3.65;1.05;;;;;;;;;;4954914;28;20031;-60
2022/07/01 00:42:16;;;;;;;2.67;1.00;;;;;;;;;;4950928;28;20034;-62
2022/07/01 00:45:02;;;;;;;2.58;1.10;;;;;;;;;;4948364;28;20023;-63
2022/07/01 00:47:48;;;;;;;1.50;0.85;;;;;;;;;;4967320;28;20047;-76
2022/07/01 00:50:33;;;;;;;2.65;0.93;;;;;;;;;;4967206;28;20032;-75
2022/07/01 00:53:19;;;;;;;2.20;0.90;;;;;;;;;;4952319;28;20471;-73
2022/07/01 00:56:05;;;;;;;2.30;1.00;;;;;;;;;;4953486;28;20657;-73
2022/07/01 00:58:50;;;;;;;3.53;1.20;;;;;;;;;;4954306;28;20036;-74
2022/07/01 01:01:36;;;;;;;5.78;1.90;;;;;;;;;;4958254;28;20035;-72
2022/07/01 01:04:21;;;;;;;2.97;1.25;;;;;;;;;;4945299;28;20568;-64
2022/07/01 01:07:07;;;;;;;2.10;1.08;;;;;;;;;;4954578;28;20035;-71
2022/07/01 01:09:53;;;;;;;4.28;1.13;;;;;;;;;;4959949;28;20085;-71
2022/07/01 01:12:38;;;;;;;2.75;0.90;;;;;;;;;;4947100;28;20435;-71
2022/07/01 01:15:24;;;;;;;1.77;0.90;;;;;;;;;;4966924;28;20031;-70
2022/07/01 01:18:09;;;;;;;3.17;1.10;;;;;;;;;;4950640;28;20027;-71
2022/07/01 01:20:55;;;;;;;2.55;0.88;;;;;;;;;;4947763;28;20195;-75
2022/07/01 01:23:41;;;;;;;1.48;0.90;;;;;;;;;;4950016;28;20027;-62
2022/07/01 01:26:26;;;;;;;1.33;0.80;;;;;;;;;;4946811;28;20035;-65
2022/07/01 01:29:12;;;;;;;3.03;1.10;;;;;;;;;;4957290;28;20027;-63
2022/07/01 01:31:58;;;;;;;3.65;0.82;;;;;;;;;;4966895;28;20039;-65
2022/07/01 01:34:43;;;;;;;2.08;0.80;;;;;;;;;;4950287;28;20031;-63
2022/07/01 01:37:29;;;;;;;4.15;0.80;;;;;;;;;;4948609;28;20459;-61
2022/07/01 01:40:14;;;;;;;3.92;1.25;;;;;;;;;;4957092;28;20027;-62
2022/07/01 01:43:00;;;;;;;1.45;1.15;;;;;;;;;;4950357;28;20478;-66
2022/07/01 01:45:46;;;;;;;3.83;1.00;;;;;;;;;;4951093;28;20019;-67
2022/07/01 01:48:31;;;;;;;2.85;1.17;;;;;;;;;;4952729;28;20446;-66
2022/07/01 01:51:18;;;;;;;1.50;0.90;;;;;;;;;;4953625;28;20046;-68
2022/07/01 01:54:04;;;;;;;3.22;1.10;;;;;;;;;;4949593;28;20047;-66
2022/07/01 01:56:50;;;;;;;2.70;0.90;;;;;;;;;;4951496;28;20034;-62
2022/07/01 01:59:36;;;;;;;3.67;1.20;;;;;;;;;;5000622;28;20110;-64
2022/07/01 02:02:21;;;;;;;0.80;0.80;;;;;;;;;;5005363;28;20017;-63
2022/07/01 02:05:10;;;;;;;2.78;1.00;;;;;;;;;;5001296;28;20501;-63
2022/07/01 02:07:55;;;;;;;2.35;1.40;;;;;;;;;;4993343;28;20027;-63
2022/07/01 02:10:41;;;;;;;2.70;0.98;;;;;;;;;;4948563;28;20130;-62
2022/07/01 02:13:26;;;;;;;1.85;1.05;;;;;;;;;;4954379;28;20059;-62
2022/07/01 02:16:12;;;;;;;2.90;1.08;;;;;;;;;;4949025;28;20027;-62
2022/07/01 02:18:58;;;;;;;0.85;0.85;;;;;;;;;;4964035;28;20481;-66
2022/07/01 02:21:43;;;;;;;3.88;0.85;;;;;;;;;;4964825;28;20031;-68
2022/07/01 02:24:29;;;;;;;0.90;0.90;;;;;;;;;;4975653;28;20025;-66
2022/07/01 02:27:14;;;;;;;1.77;1.30;;;;;;;;;;4990310;28;20042;-70
2022/07/01 02:30:00;;;;;;;0.80;0.80;;;;;;;;;;4951763;28;20035;-68
2022/07/01 02:32:46;;;;;;;0.70;0.70;;;;;;;;;;4950250;28;20054;-66
2022/07/01 02:35:35;;;;;;;1.77;0.80;;;;;;;;;;4953034;28;20038;-72
2022/07/01 02:38:20;;;;;;;0.93;0.90;;;;;;;;;;4950404;28;20031;-63
2022/07/01 02:41:06;;;;;;;3.33;1.17;;;;;;;;;;4953106;28;20027;-64
2022/07/01 02:43:51;;;;;;;0.93;0.80;;;;;;;;;;4953608;28;20225;-63
2022/07/01 02:46:37;;;;;;;3.25;1.27;;;;;;;;;;4948343;28;20293;-64
2022/07/01 02:49:22;;;;;;;1.55;1.08;;;;;;;;;;4987813;28;20051;-64
2022/07/01 02:52:08;;;;;;;1.33;1.10;;;;;;;;;;4949362;28;20118;-75
2022/07/01 02:54:54;;;;;;;2.08;1.15;;;;;;;;;;4951065;28;20027;-75
2022/07/01 02:57:40;;;;;;;1.15;1.08;;;;;;;;;;4957772;28;20040;-64
2022/07/01 03:00:26;;;;;;;2.85;1.25;;;;;;;;;;4945547;28;20046;-62
2022/07/01 03:03:11;;;;;;;2.08;1.25;;;;;;;;;;4948378;28;20028;-65
2022/07/01 03:05:57;;;;;;;2.90;1.40;;;;;;;;;;4951174;28;20023;-63
2022/07/01 03:08:42;;;;;;;4.95;1.25;;;;;;;;;;4949204;28;20034;-63
2022/07/01 03:11:28;;;;;;;4.80;1.40;;;;;;;;;;4953156;28;20073;-64
2022/07/01 03:14:14;;;;;;;2.50;1.35;;;;;;;;;;4951396;28;20019;-69
2022/07/01 03:16:59;;;;;;;3.30;1.40;;;;;;;;;;4954189;28;20027;-72
2022/07/01 03:19:45;;;;;;;2.63;1.42;;;;;;;;;;4951228;28;20061;-69
2022/07/01 03:22:31;;;;;;;3.00;1.50;;;;;;;;;;4949016;28;20031;-70
2022/07/01 03:25:17;;;;;;;1.65;1.27;;;;;;;;;;4952502;28;20027;-69
2022/07/01 03:28:03;;;;;;;3.72;1.50;;;;;;;;;;4962070;28;20023;-69
2022/07/01 03:30:49;;;;;;;1.77;1.25;;;;;;;;;;4941768;28;20039;-66
2022/07/01 03:33:35;;;;;;;2.67;1.60;;;;;;;;;;4947954;28;20059;-76
2022/07/01 03:36:20;;;;;;;1.40;1.30;;;;;;;;;;4949930;28;20432;-78
2022/07/01 03:39:06;;;;;;;2.83;1.23;;;;;;;;;;4968982;28;20023;-76
2022/07/01 03:41:51;;;;;;;3.78;1.10;;;;;;;;;;4947892;28;20386;-76
2022/07/01 03:44:37;;;;;;;2.03;1.15;;;;;;;;;;4955413;28;20085;-80
2022/07/01 03:47:23;;;;;;;4.78;1.38;;;;;;;;;;4950696;28;20027;-66
2022/07/01 03:50:08;;;;;;;2.10;1.10;;;;;;;;;;4941079;28;20031;-62
2022/07/01 03:55:58;;;;;;;1.67;1.02;;;;;;;;;;4948330;28;20088;-60
2022/07/01 03:58:43;;;;;;;1.45;1.10;;;;;;;;;;4957521;28;20035;-59
2022/07/01 04:01:29;;;;;;;2.15;1.10;;;;;;;;;;4946672;28;20085;-59
2022/07/01 04:04:15;;;;;;;3.10;1.17;;;;;;;;;;4952581;28;20500;-59
2022/07/01 04:07:01;;;;;;;3.55;1.38;;;;;;;;;;4948935;28;20497;-64
2022/07/01 04:09:47;;;;;;;1.48;1.33;;;;;;;;;;4945710;28;20035;-78
2022/07/01 04:12:32;;;;;;;1.90;1.38;;;;;;;;;;4948141;28;20367;-76
2022/07/01 04:15:18;;;;;;;4.28;1.50;;;;;;;;;;4967877;28;20081;-76
2022/07/01 04:18:04;;;;;;;2.45;1.23;;;;;;;;;;4954427;28;20031;-77
2022/07/01 04:23:53;;;;;;;1.23;0.90;;;;;;;;;;4952970;28;20109;-77
2022/07/01 04:26:40;;;;;;;2.78;1.20;;;;;;;;;;4953153;28;20019;-66
2022/07/01 04:29:25;;;;;;;2.53;1.05;;;;;;;;;;4945992;28;20510;-61
2022/07/01 04:32:11;;;;;;;3.88;0.98;;;;;;;;;;4947197;28;20031;-60
2022/07/01 04:34:57;;;;;;;2.42;1.10;;;;;;;;;;4955404;28;20035;-59
2022/07/01 04:37:42;;;;;;;2.17;1.20;;;;;;;;;;4955377;28;20185;-59
2022/07/01 04:40:28;;;;;;;1.15;1.00;;;;;;;;;;4950232;28;20501;-59
2022/07/01 04:43:13;;;;;;;2.47;0.98;;;;;;;;;;4955857;28;20035;-63
2022/07/01 04:45:59;;;;;;;2.13;1.05;;;;;;;;;;4955274;28;20512;-64
2022/07/01 04:48:44;;;;;;;2.10;0.98;;;;;;;;;;4948431;28;20047;-64
2022/07/01 04:51:30;;;;;;;1.35;1.10;;;;;;;;;;4949808;28;20510;-63
2022/07/01 04:54:16;;;;;;;0.80;0.80;;;;;;;;;;4951551;28;20027;-62
2022/07/01 04:57:02;;;;;;;2.40;1.25;;;;;;;;;;4952348;28;20093;-63
2022/07/01 04:59:47;;;;;;;2.85;0.95;;;;;;;;;;4951545;28;20027;-64
2022/07/01 05:02:33;;;;;;;2.15;1.25;;;;;;;;;;4952473;28;20381;-70
2022/07/01 05:05:18;;;;;;;1.23;0.95;;;;;;;;;;4957033;28;20024;-61
2022/07/01 05:08:04;;;;;;;1.95;0.82;;;;;;;;;;4946394;28;20027;-60
2022/07/01 05:10:50;;;;;;;2.13;1.10;;;;;;;;;;4948520;28;20118;-60
2022/07/01 05:13:35;;;;;;;4.20;1.73;;;;;;;;;;4953294;28;20031;-58
2022/07/01 05:16:21;;;;;;;3.70;1.33;;;;;;;;;;4988770;28;20056;-59
2022/07/01 05:22:11;;;;;;;2.15;1.23;;;;;;;;;;4950558;28;20029;-61
2022/07/01 05:24:57;;;;;;;3.38;1.40;;;;;;;;;;4947178;28;20124;-63
2022/07/01 05:27:42;;;;;;;3.00;1.35;;;;;;;;;;4964301;28;20031;-63
2022/07/01 05:30:28;;;;;;;2.30;1.60;;;;;;;;;;4951722;28;20054;-63
2022/07/01 05:33:13;;;;;;;1.75;1.20;;;;;;;;;;4952803;28;20039;-60
2022/07/01 05:35:59;;;;;;;3.55;0.90;;;;;;;;;;4950151;28;20026;-59
2022/07/01 05:38:45;;;;;;;1.58;1.27;;;;;;;;;;4948884;28;20046;-55
2022/07/01 05:41:31;;;;;;;2.33;1.20;;;;;;;;;;4950378;28;20023;-67
2022/07/01 05:44:17;;;;;;;3.05;1.30;;;;;;;;;;4949929;28;20050;-66
2022/07/01 05:47:02;;;;;;;2.15;1.27;;;;;;;;;;4952362;28;20024;-67
2022/07/01 05:49:48;;;;;;;1.65;1.20;;;;;;;;;;4950879;28;20486;-66
2022/07/01 05:52:33;;;;;;;3.95;1.30;;;;;;;;;;4962559;28;20047;-66
2022/07/01 05:55:19;;;;;;;4.20;1.25;;;;;;;;;;4944801;28;20027;-67
2022/07/01 05:58:06;;;;;;;2.05;1.38;;;;;;;;;;4952626;28;20058;-60
2022/07/01 06:00:51;;;;;;;4.20;1.73;;;;;;;;;;4952327;28;20051;-59
2022/07/01 06:03:37;;;;;;;2.45;1.45;;;;;;;;;;4950917;28;20026;-59
2022/07/01 06:06:22;;;;;;;2.95;1.30;;;;;;;;;;4950344;28;20157;-59
2022/07/01 06:09:08;;;;;;;3.13;1.70;;;;;;;;;;4953390;28;20027;-57
2022/07/01 06:11:54;;;;;;;4.28;1.85;;;;;;;;;;4950216;28;20085;-58
2022/07/01 06:14:39;;;;;;;3.45;1.65;;;;;;;;;;4952155;28;20049;-65
2022/07/01 06:17:25;;;;;;;6.03;3.30;;;;;;;;;;4948506;28;20035;-67
2022/07/01 06:20:10;;;;;;;2.35;1.60;;;;;;;;;;4948316;28;20110;-66
2022/07/01 06:22:57;;;;;;;4.93;2.38;;;;;;;;;;4951284;28;20023;-67
2022/07/01 06:25:43;;;;;;;2.45;1.70;;;;;;;;;;4950727;28;20031;-66
2022/07/01 06:28:29;;;;;;;4.22;1.80;;;;;;;;;;4950803;28;20028;-67
2022/07/01 06:31:15;;;;;;;2.17;1.48;;;;;;;;;;4955263;28;20643;-66
2022/07/01 06:34:00;;;;;;;7.22;2.65;;;;;;;;;;4943289;28;20074;-66
2022/07/01 06:36:46;;;;;;;3.58;1.90;;;;;;;;;;4958028;28;20474;-61
2022/07/01 06:39:31;;;;;;;4.60;2.13;;;;;;;;;;4950291;28;20016;-58
2022/07/01 06:42:17;;;;;;;5.68;2.33;;;;;;;;;;4946786;28;20034;-60
2022/07/01 06:45:03;;;;;;;4.30;1.95;;;;;;;;;;4952676;28;20386;-59
2022/07/01 06:47:48;;;;;;;1.98;1.60;;;;;;;;;;4952780;28;20047;-58
2022/07/01 06:50:34;;;;;;;4.68;1.73;;;;;;;;;;4949895;28;20514;-61
2022/07/01 06:53:19;;;;;;;3.17;1.92;;;;;;;;;;4948953;28;20031;-67
2022/07/01 06:56:05;;;;;;;3.65;1.98;;;;;;;;;;4951677;28;20593;-67
2022/07/01 06:58:51;;;;;;;5.53;1.92;;;;;;;;;;4947154;28;20433;-67
2022/07/01 07:01:37;;;;;;;5.10;1.50;;;;;;;;;;4946786;28;20034;-67
2022/07/01 07:04:22;;;;;;;3.35;1.50;;;;;;;;;;4946128;28;20034;-66
2022/07/01 07:07:08;;;;;;;3.67;1.67;;;;;;;;;;4946388;28;20047;-67
2022/07/01 07:09:55;;;;;;;2.92;1.67;;;;;;;;;;4956046;28;20130;-60
2022/07/01 07:12:41;;;;;;;3.42;1.80;;;;;;;;;;4948059;28;20031;-66
2022/07/01 07:15:26;;;;;;;2.15;1.30;;;;;;;;;;4949781;28;20407;-65
2022/07/01 07:18:12;;;;;;;2.42;1.40;;;;;;;;;;4951155;28;20035;-67
2022/07/01 07:20:58;;;;;;;1.50;1.33;;;;;;;;;;4948388;28;20028;-65
2022/07/01 07:23:43;;;;;;;3.60;1.30;;;;;;;;;;4949565;28;20444;-65
2022/07/01 07:26:29;;;;;;;3.85;1.38;;;;;;;;;;4949515;28;20022;-64
2022/07/01 07:29:14;;;;;;;2.03;1.30;;;;;;;;;;4950254;28;20113;-64
2022/07/01 07:32:00;;;;;;;1.35;1.20;;;;;;;;;;4949671;28;20394;-65
2022/07/01 07:34:46;;;;;;;2.22;1.17;;;;;;;;;;4948490;28;20077;-66
2022/07/01 07:37:32;;;;;;;2.22;1.13;;;;;;;;;;4949196;28;20027;-66
2022/07/01 07:40:20;;;;;;;2.35;1.40;;;;;;;;;;4948841;28;20164;-65
2022/07/01 07:43:07;;;;;;;3.70;1.42;;;;;;;;;;4947388;28;20103;-65
2022/07/01 07:45:52;;;;;;;2.55;1.33;;;;;;;;;;4944967;28;20027;-67
2022/07/01 07:48:38;;;;;;;1.85;1.38;;;;;;;;;;4951468;28;20123;-66
2022/07/01 07:51:24;;;;;;;1.98;1.20;;;;;;;;;;4948357;28;20089;-66
2022/07/01 07:54:09;;;;;;;2.38;1.70;;;;;;;;;;4951704;28;20050;-62
2022/07/01 07:56:55;;;;;;;4.40;1.23;;;;;;;;;;4950515;28;20114;-64
2022/07/01 07:59:41;;;;;;;2.08;1.23;;;;;;;;;;4948566;28;20110;-65
2022/07/01 08:02:26;;;;;;;2.75;1.00;;;;;;;;;;4992375;28;20491;-64
2022/07/01 08:05:12;;;;;;;1.75;1.10;;;;;;;;;;4947009;28;20035;-67
2022/07/01 08:07:57;;;;;;;1.75;1.20;;;;;;;;;;4949418;28;20477;-64
2022/07/01 08:10:43;;;;;;;2.95;1.42;;;;;;;;;;4939198;28;20035;-66
2022/07/01 08:13:29;;;;;;;2.78;1.30;;;;;;;;;;4949778;28;20019;-67
2022/07/01 08:16:14;;;;;;;2.53;1.50;;;;;;;;;;4949054;28;20573;-67
2022/07/01 08:19:00;;;;;;;4.30;1.73;;;;;;;;;;4951149;28;20068;-65
2022/07/01 08:21:46;;;;;;;2.80;1.60;;;;;;;;;;4952671;28;20036;-66
2022/07/01 08:24:31;;;;;;;3.42;1.27;;;;;;;;;;4949825;28;20027;-61
2022/07/01 08:27:17;;;;;;;2.38;1.23;;;;;;;;;;4947141;28;20036;-60
2022/07/01 08:30:03;;;;;;;2.38;1.50;;;;;;;;;;4950540;28;20085;-60
2022/07/01 08:32:49;;;;;;;2.83;1.00;;;;;;;;;;4944890;28;20406;-59
2022/07/01 08:35:34;;;;;;;2.80;1.30;;;;;;;;;;4949859;28;20028;-73
2022/07/01 08:38:20;;;;;;;2.13;1.50;;;;;;;;;;4948761;28;20027;-74
2022/07/01 08:41:05;;;;;;;2.97;1.52;;;;;;;;;;4948771;28;20027;-72
2022/07/01 08:43:51;;;;;;;1.70;1.23;;;;;;;;;;4952139;28;20431;-80
2022/07/01 08:46:36;;;;;;;2.00;0.90;;;;;;;;;;4948843;28;20038;-70
2022/07/01 08:49:22;;;;;;;1.92;1.30;;;;;;;;;;4948962;28;20066;-69
2022/07/01 08:52:09;;;;;;;2.45;1.27;;;;;;;;;;4953279;28;20032;-69
2022/07/01 08:54:54;;;;;;;9.20;2.10;;;;;;;;;;4949193;28;20405;-69
2022/07/01 08:57:40;;;;;;;3.05;1.63;;;;;;;;;;4951921;28;20114;-69
2022/07/01 09:00:29;;;;;;;5.25;1.58;;;;;;;;;;4946913;28;20042;-76
2022/07/01 09:03:15;;;;;;;1.58;1.40;;;;;;;;;;4951639;28;20023;-74
2022/07/01 09:06:01;;;;;;;2.10;1.10;;;;;;;;;;4952767;28;20085;-73
2022/07/01 09:08:47;;;;;;;1.98;1.00;;;;;;;;;;4951775;28;20471;-73
2022/07/01 09:11:32;;;;;;;1.98;1.23;;;;;;;;;;4951764;28;20397;-72
2022/07/01 09:14:19;;;;;;;2.30;1.60;;;;;;;;;;4951681;28;20154;-74
2022/07/01 09:17:06;;;;;;;2.55;1.30;;;;;;;;;;4951616;28;20035;-73
2022/07/01 09:19:51;;;;;;;2.92;1.20;;;;;;;;;;4947226;28;20537;-75
2022/07/01 09:22:37;;;;;;;2.35;1.40;;;;;;;;;;4950772;28;20035;-70
2022/07/01 09:25:27;;;;;;;2.17;1.30;;;;;;;;;;4950181;28;20383;-71
2022/07/01 09:28:17;;;;;;;4.75;1.65;;;;;;;;;;4952729;28;20031;-72
2022/07/01 09:31:02;;;;;;;4.15;1.50;;;;;;;;;;4956332;28;20478;-69
2022/07/01 09:34:04;;;;;;;2.50;1.45;;;;;;;;;;4951162;28;20025;-71
2022/07/01 09:36:54;;;;;;;1.83;1.25;;;;;;;;;;4945469;28;20073;-80
2022/07/01 09:39:53;;;;;;;3.08;1.40;;;;;;;;;;4951389;28;20027;-70
2022/07/01 09:42:44;;;;;;;5.55;1.20;;;;;;;;;;4951847;28;20026;-69
2022/07/01 09:45:34;;;;;;;2.75;1.10;;;;;;;;;;4950294;28;20034;-69
2022/07/01 09:48:20;;;;;;;3.20;1.27;;;;;;;;;;4946307;28;20051;-71
2022/07/01 09:51:07;;;;;;;3.83;1.33;;;;;;;;;;4949089;28;20460;-70
2022/07/01 09:53:52;;;;;;;2.75;1.40;;;;;;;;;;4948160;28;20027;-69
2022/07/01 09:56:38;;;;;;;3.35;1.30;;;;;;;;;;4953256;28;20027;-76
2022/07/01 09:59:23;;;;;;;3.20;1.33;;;;;;;;;;4966034;28;20027;-70
2022/07/01 10:02:10;;;;;;;1.55;1.30;;;;;;;;;;4945635;28;20037;-70
2022/07/01 10:05:01;;;;;;;4.57;1.75;;;;;;;;;;4951864;28;20042;-71
2022/07/01 10:08:10;;;;;;;2.47;1.45;;;;;;;;;;4948482;28;20103;-70
2022/07/01 10:11:14;;;;;;;2.08;1.33;;;;;;;;;;4953234;28;20047;-71
2022/07/01 10:14:00;;;;;;;4.45;1.30;;;;;;;;;;4953117;28;20051;-74
2022/07/01 10:16:48;;;;;;;2.05;1.50;;;;;;;;;;4951823;28;20113;-82
2022/07/01 10:19:34;;;;;;;3.40;1.60;;;;;;;;;;4950182;28;20036;-74
2022/07/01 10:22:28;;;;;;;2.95;1.40;;;;;;;;;;4963207;28;20027;-74
2022/07/01 10:25:33;;;;;;;1.38;1.27;;;;;;;;;;4953411;28;20073;-73
2022/07/01 10:28:19;;;;;;;3.20;1.52;;;;;;;;;;4946224;28;20078;-72
2022/07/01 10:31:09;;;;;;;3.50;1.27;;;;;;;;;;4955959;28;20035;-73
2022/07/01 10:33:55;;;;;;;2.67;1.40;;;;;;;;;;4981830;28;20460;-75
2022/07/01 10:36:40;;;;;;;1.58;1.00;;;;;;;;;;4951341;28;20031;-71
2022/07/01 10:39:27;;;;;;;1.17;1.10;;;;;;;;;;4951435;28;20471;-72
2022/07/01 10:42:13;;;;;;;2.05;1.20;;;;;;;;;;4947982;28;20035;-71
2022/07/01 10:44:59;;;;;;;2.58;1.83;;;;;;;;;;4948763;28;20042;-71
2022/07/01 10:47:45;;;;;;;1.98;1.30;;;;;;;;;;4949827;28;20047;-71
2022/07/01 10:50:37;;;;;;;3.17;1.50;;;;;;;;;;4949006;28;20042;-72
2022/07/01 10:53:22;;;;;;;4.18;2.13;;;;;;;;;;4949064;28;20044;-86
2022/07/01 10:56:08;;;;;;;3.78;1.83;;;;;;;;;;4949654;28;20027;-72
2022/07/01 10:59:00;;;;;;;6.00;1.80;;;;;;;;;;4948568;28;20042;-74
2022/07/01 11:01:46;;;;;;;2.25;1.33;;;;;;;;;;4947342;28;20031;-73
2022/07/01 11:04:38;;;;;;;5.95;1.90;;;;;;;;;;4950589;28;20173;-75
2022/07/01 11:07:24;;;;;;;2.67;1.65;;;;;;;;;;4946126;28;20114;-75
2022/07/01 11:10:10;;;;;;;4.38;1.40;;;;;;;;;;4945640;28;20035;-73
2022/07/01 11:12:56;;;;;;;2.97;1.75;;;;;;;;;;4951002;28;20031;-83
2022/07/01 11:15:44;;;;;;;3.78;1.65;;;;;;;;;;4944727;28;20486;-86
2022/07/01 11:18:30;;;;;;;6.65;2.10;;;;;;;;;;4948988;28;20034;-84
2022/07/01 11:21:15;;;;;;;1.83;1.30;;;;;;;;;;4949247;28;20038;-84
2022/07/01 11:24:01;;;;;;;3.13;1.23;;;;;;;;;;4955301;28;20059;-82
2022/07/01 11:26:46;;;;;;;4.38;1.85;;;;;;;;;;4946520;28;20039;-81
2022/07/01 11:29:32;;;;;;;4.40;1.65;;;;;;;;;;4951394;28;20027;-74
2022/07/01 11:32:25;;;;;;;1.67;1.58;;;;;;;;;;4957806;28;20031;-83
2022/07/01 11:41:25;;;;;;;1.33;1.17;;;;;;;;;;4950946;28;20031;-84
2022/07/01 11:44:10;;;;;;;1.70;1.15;;;;;;;;;;4947098;28;20402;-84
2022/07/01 11:46:56;;;;;;;2.63;1.17;;;;;;;;;;4948517;28;20038;-75
2022/07/01 11:49:45;;;;;;;1.98;1.40;;;;;;;;;;4949878;28;20173;-75
2022/07/01 11:52:32;;;;;;;2.05;1.67;;;;;;;;;;4949623;28;20035;-72
2022/07/01 11:55:18;;;;;;;0.85;0.85;;;;;;;;;;4951187;28;20102;-74
2022/07/01 11:58:05;;;;;;;3.03;1.60;;;;;;;;;;4984400;28;20451;-73
2022/07/01 12:00:51;;;;;;;1.65;1.08;;;;;;;;;;4949213;28;20096;-73
2022/07/01 12:03:37;;;;;;;1.50;1.20;;;;;;;;;;4950338;28;20062;-74
2022/07/01 12:06:23;;;;;;;3.42;1.30;;;;;;;;;;4948957;28;20471;-81
2022/07/01 12:09:16;;;;;;;3.72;1.00;;;;;;;;;;4952331;28;20106;-84
2022/07/01 12:12:03;;;;;;;1.65;1.00;;;;;;;;;;4952087;28;20099;-84
2022/07/01 12:14:52;;;;;;;6.05;1.60;;;;;;;;;;4949634;28;20031;-83
2022/07/01 12:17:38;;;;;;;1.38;1.00;;;;;;;;;;4942596;28;20405;-84
2022/07/01 12:20:32;;;;;;;1.48;1.08;;;;;;;;;;4961888;28;20035;-84
2022/07/01 12:23:18;;;;;;;2.00;1.20;;;;;;;;;;4953646;28;20031;-78
2022/07/01 12:26:04;;;;;;;3.92;1.52;;;;;;;;;;4943705;28;20548;-72
2022/07/01 12:28:53;;;;;;;1.45;1.20;;;;;;;;;;4952085;28;20110;-68
2022/07/01 12:31:42;;;;;;;3.15;1.42;;;;;;;;;;4954871;28;20445;-70
2022/07/01 12:34:47;;;;;;;2.40;1.25;;;;;;;;;;4957093;28;20061;-71
2022/07/01 12:37:37;;;;;;;1.77;1.10;;;;;;;;;;4950913;28;20033;-71
2022/07/01 12:40:24;;;;;;;3.72;1.23;;;;;;;;;;4952595;28;20031;-71
2022/07/01 12:43:28;;;;;;;5.68;1.45;;;;;;;;;;4943414;28;20031;-74
2022/07/01 12:46:26;;;;;;;1.15;0.93;;;;;;;;;;4953155;28;20023;-76
2022/07/01 12:49:18;;;;;;;3.50;1.65;;;;;;;;;;4952137;28;20410;-76
2022/07/01 12:52:22;;;;;;;3.67;1.50;;;;;;;;;;4955082;28;20039;-77
2022/07/01 12:55:13;;;;;;;3.40;1.45;;;;;;;;;;4951308;28;20066;-76
2022/07/01 12:57:59;;;;;;;4.05;1.63;;;;;;;;;;4952877;28;20035;-76
2022/07/01 13:00:46;;;;;;;2.25;1.73;;;;;;;;;;4952877;28;20065;-70
2022/07/01 13:03:32;;;;;;;3.03;1.48;;;;;;;;;;4950844;28;20026;-75
2022/07/01 13:06:17;;;;;;;1.60;1.33;;;;;;;;;;4948886;28;20062;-75
2022/07/01 13:09:03;;;;;;;3.47;1.35;;;;;;;;;;4950722;28;20129;-76
2022/07/01 13:11:49;;;;;;;2.10;1.30;;;;;;;;;;4952360;28;20050;-75
2022/07/01 13:14:34;;;;;;;3.10;1.15;;;;;;;;;;4950111;28;20667;-75
2022/07/01 13:17:21;;;;;;;3.95;1.50;;;;;;;;;;4945792;28;20119;-75
2022/07/01 13:20:07;;;;;;;2.95;1.40;;;;;;;;;;4948571;28;20120;-79
2022/07/01 13:22:53;;;;;;;1.10;1.00;;;;;;;;;;4941278;28;20114;-82
2022/07/01 13:25:39;;;;;;;1.88;1.40;;;;;;;;;;4953744;28;20490;-87
2022/07/01 13:28:24;;;;;;;2.78;1.38;;;;;;;;;;4955291;28;20098;-85
2022/07/01 13:31:10;;;;;;;2.90;1.20;;;;;;;;;;4950696;28;20023;-78
2022/07/01 13:33:56;;;;;;;2.42;1.20;;;;;;;;;;4950310;28;20028;-78
2022/07/01 13:36:41;;;;;;;2.67;1.15;;;;;;;;;;4945536;28;20032;-77
2022/07/01 13:39:27;;;;;;;2.45;1.55;;;;;;;;;;4949813;28;20487;-70
2022/07/01 13:42:12;;;;;;;3.03;1.52;;;;;;;;;;4956316;28;20051;-70
2022/07/01 13:44:58;;;;;;;1.95;1.15;;;;;;;;;;4944632;28;20459;-70
2022/07/01 13:47:44;;;;;;;2.13;1.20;;;;;;;;;;5000137;28;20035;-70
2022/07/01 13:50:29;;;;;;;3.10;1.35;;;;;;;;;;4957254;28;20035;-70
2022/07/01 13:53:15;;;;;;;1.95;1.30;;;;;;;;;;4956054;28;20034;-70
2022/07/01 13:56:00;;;;;;;2.13;1.20;;;;;;;;;;4975342;28;20102;-75
2022/07/01 13:58:49;;;;;;;2.70;1.30;;;;;;;;;;4954298;28;20039;-70
2022/07/01 14:01:34;;;;;;;3.17;1.58;;;;;;;;;;4952531;28;20024;-69
2022/07/01 14:04:20;;;;;;;2.75;1.33;;;;;;;;;;4951350;28;20498;-69
2022/07/01 14:07:06;;;;;;;2.97;1.20;;;;;;;;;;4950262;28;20057;-70
2022/07/01 14:09:51;;;;;;;2.63;1.20;;;;;;;;;;4952052;28;20035;-71
2022/07/01 14:12:37;;;;;;;2.78;1.50;;;;;;;;;;4952514;28;20031;-72
2022/07/01 14:15:22;;;;;;;2.22;1.30;;;;;;;;;;4948468;28;20035;-73
2022/07/01 14:18:08;;;;;;;3.05;1.52;;;;;;;;;;4955269;28;20155;-81
2022/07/01 14:20:54;;;;;;;3.38;1.35;;;;;;;;;;4948342;28;20455;-81
2022/07/01 14:23:39;;;;;;;3.05;1.60;;;;;;;;;;4950773;28;20156;-81
2022/07/01 14:26:25;;;;;;;1.23;1.13;;;;;;;;;;4952336;28;20617;-82
2022/07/01 14:29:10;;;;;;;2.25;1.25;;;;;;;;;;4951057;28;20042;-79
2022/07/01 14:31:56;;;;;;;1.88;1.08;;;;;;;;;;4951335;28;20498;-82
2022/07/01 14:34:42;;;;;;;1.58;1.27;;;;;;;;;;4953534;28;20030;-76
2022/07/01 14:37:28;;;;;;;2.95;1.00;;;;;;;;;;4949517;28;20110;-76
2022/07/01 14:40:13;;;;;;;2.58;1.10;;;;;;;;;;4952994;28;20035;-76
2022/07/01 14:42:59;;;;;;;2.00;1.20;;;;;;;;;;4938724;28;20110;-77
2022/07/01 14:45:46;;;;;;;1.98;1.30;;;;;;;;;;4949551;28;20470;-75
2022/07/01 14:48:32;;;;;;;3.50;1.60;;;;;;;;;;4951243;28;20134;-75
2022/07/01 14:51:18;;;;;;;2.42;1.23;;;;;;;;;;4950589;28;20074;-72
2022/07/01 14:54:04;;;;;;;2.72;1.23;;;;;;;;;;4956389;28;20505;-80
2022/07/01 14:56:49;;;;;;;3.72;0.93;;;;;;;;;;4952210;28;20031;-80
2022/07/01 14:59:35;;;;;;;2.97;1.10;;;;;;;;;;4951787;28;20059;-80
2022/07/01 15:02:20;;;;;;;3.53;1.20;;;;;;;;;;4996155;28;20093;-79
2022/07/01 15:05:06;;;;;;;2.38;1.10;;;;;;;;;;4952247;28;20056;-80
2022/07/01 15:07:52;;;;;;;4.53;1.30;;;;;;;;;;4951476;28;20031;-81
2022/07/01 15:10:37;;;;;;;3.45;1.20;;;;;;;;;;4947643;28;20041;-79
2022/07/01 15:13:23;;;;;;;2.30;0.90;;;;;;;;;;4950035;28;20035;-75
2022/07/01 15:16:08;;;;;;;3.53;1.10;;;;;;;;;;4953124;28;20172;-75
2022/07/01 15:18:54;;;;;;;2.50;1.20;;;;;;;;;;4951059;28;20425;-76
2022/07/01 15:21:40;;;;;;;2.70;1.10;;;;;;;;;;4946974;28;20390;-77
2022/07/01 15:24:25;;;;;;;2.13;1.05;;;;;;;;;;4949881;28;20035;-75
2022/07/01 15:27:11;;;;;;;1.45;1.10;;;;;;;;;;4953060;28;20390;-78
2022/07/01 15:29:57;;;;;;;1.88;0.98;;;;;;;;;;4952284;28;20035;-71
2022/07/01 15:32:42;;;;;;;4.32;0.80;;;;;;;;;;4954589;28;20468;-71
2022/07/01 15:35:28;;;;;;;1.63;1.20;;;;;;;;;;4951200;28;20027;-72
2022/07/01 15:38:13;;;;;;;1.00;0.88;;;;;;;;;;4951448;28;20073;-71
2022/07/01 15:40:59;;;;;;;2.38;1.00;;;;;;;;;;4949712;28;20034;-71
2022/07/01 15:43:45;;;;;;;2.70;1.20;;;;;;;;;;4950698;28;20054;-71
2022/07/01 15:46:30;;;;;;;2.90;1.02;;;;;;;;;;4946133;28;20509;-73
2022/07/01 15:49:16;;;;;;;1.23;0.88;;;;;;;;;;4948874;28;20105;-75
2022/07/01 15:52:01;;;;;;;2.85;1.65;;;;;;;;;;4949530;28;20047;-76
2022/07/01 15:54:47;;;;;;;2.58;1.02;;;;;;;;;;4949759;28;20027;-76
2022/07/01 15:57:33;;;;;;;5.07;1.10;;;;;;;;;;5000499;28;20036;-75
2022/07/01 16:00:19;;;;;;;1.27;1.08;;;;;;;;;;4951005;28;20054;-75
2022/07/01 16:03:05;;;;;;;1.77;1.20;;;;;;;;;;4950835;28;20106;-76
2022/07/01 16:05:57;;;;;;;3.05;1.08;;;;;;;;;;4951898;28;20114;-71
2022/07/01 16:08:47;;;;;;;2.60;1.20;;;;;;;;;;4949799;28;20027;-72
2022/07/01 16:11:33;;;;;;;1.10;1.00;;;;;;;;;;4949543;28;20059;-73
2022/07/01 16:14:19;;;;;;;1.83;1.05;;;;;;;;;;4954295;28;20031;-73
2022/07/01 16:17:06;;;;;;;1.92;1.20;;;;;;;;;;4950284;28;20058;-74
2022/07/01 16:19:52;;;;;;;2.35;1.08;;;;;;;;;;4951305;28;20027;-72
2022/07/01 16:22:38;;;;;;;1.13;0.82;;;;;;;;;;4939506;28;20395;-70
2022/07/01 16:25:24;;;;;;;2.35;1.10;;;;;;;;;;4946268;28;20031;-77
2022/07/01 16:28:10;;;;;;;1.60;0.90;;;;;;;;;;4941800;28;20077;-76
2022/07/01 16:30:56;;;;;;;3.08;0.93;;;;;;;;;;4946559;28;20039;-75
2022/07/01 16:33:43;;;;;;;0.80;0.80;;;;;;;;;;4954100;28;20027;-76
2022/07/01 16:36:29;;;;;;;1.00;0.90;;;;;;;;;;4945251;28;20118;-75
2022/07/01 16:39:16;;;;;;;1.40;0.90;;;;;;;;;;4949890;28;20065;-75
2022/07/01 16:42:02;;;;;;;2.15;1.00;;;;;;;;;;4952485;28;20042;-71
2022/07/01 16:44:58;;;;;;;2.72;0.95;;;;;;;;;;4938849;28;20019;-71
2022/07/01 16:47:48;;;;;;;4.38;1.33;;;;;;;;;;4948325;28;20051;-73
2022/07/01 16:50:52;;;;;;;2.95;1.20;;;;;;;;;;4964036;28;20380;-72
2022/07/01 16:53:42;;;;;;;2.28;1.23;;;;;;;;;;4947428;28;20564;-71